TimeMDT,TemperatureF,Dew PointF,Humidity,Sea Level PressureIn,VisibilityMPH,Wind Direction,Wind SpeedMPH,Gust SpeedMPH,PrecipitationIn,Events,Conditions,WindDirDegrees,DateUTC
12:51 AM,69.1,12.9,11,29.73,10.0,Calm,Calm,-,N/A,,Mostly Cloudy,0,2013-04-02 06:51:00
1:51 AM,71.1,16.0,12,29.71,10.0,WNW,5.8,-,N/A,,Mostly Cloudy,290,2013-04-02 07:51:00
2:51 AM,63.0,16.0,16,29.72,10.0,SW,5.8,-,N/A,,Mostly Cloudy,230,2013-04-02 08:51:00
3:51 AM,61.0,17.1,18,29.72,10.0,South,8.1,-,N/A,,Mostly Cloudy,190,2013-04-02 09:51:00
4:51 AM,64.9,19.0,17,29.70,10.0,West,9.2,-,N/A,,Mostly Cloudy,260,2013-04-02 10:51:00
5:51 AM,66.9,21.0,17,29.70,10.0,WNW,8.1,-,N/A,,Mostly Cloudy,300,2013-04-02 11:51:00
6:51 AM,55.9,19.0,24,29.75,10.0,SE,6.9,-,N/A,,Mostly Cloudy,140,2013-04-02 12:51:00
7:51 AM,55.0,18.0,23,29.78,10.0,ESE,4.6,-,N/A,,Mostly Cloudy,120,2013-04-02 13:51:00
8:51 AM,64.0,21.0,19,29.78,10.0,SSE,3.5,-,N/A,,Mostly Cloudy,160,2013-04-02 14:51:00
9:51 AM,70.0,23.0,17,29.77,10.0,Variable,4.6,-,N/A,,Partly Cloudy,0,2013-04-02 15:51:00
10:51 AM,73.0,23.0,15,29.77,10.0,SW,8.1,16.1,N/A,,Partly Cloudy,220,2013-04-02 16:51:00
11:51 AM,75.0,21.0,13,29.74,10.0,WSW,15.0,25.3,N/A,,Partly Cloudy,250,2013-04-02 17:51:00
12:51 PM,77.0,19.0,11,29.72,10.0,West,12.7,26.5,N/A,,Partly Cloudy,260,2013-04-02 18:51:00
1:51 PM,79.0,15.1,9,29.67,10.0,WSW,23.0,29.9,N/A,,Partly Cloudy,250,2013-04-02 19:51:00
2:51 PM,80.1,16.0,9,29.65,10.0,West,20.7,31.1,N/A,,Partly Cloudy,270,2013-04-02 20:51:00
3:51 PM,81.0,15.1,8,29.62,10.0,West,17.3,31.1,N/A,,Partly Cloudy,270,2013-04-02 21:51:00
4:51 PM,81.0,14.0,8,29.60,10.0,WSW,12.7,20.7,N/A,,Partly Cloudy,240,2013-04-02 22:51:00
5:51 PM,80.1,8.1,6,29.57,10.0,West,17.3,38.0,N/A,,Scattered Clouds,270,2013-04-02 23:51:00
6:51 PM,75.9,10.9,8,29.63,10.0,WNW,20.7,28.8,N/A,,Partly Cloudy,300,2013-04-03 00:51:00
7:51 PM,73.0,7.0,8,29.68,10.0,WNW,19.6,29.9,N/A,,Partly Cloudy,300,2013-04-03 01:51:00
8:51 PM,71.1,5.0,8,29.69,10.0,NW,11.5,-,N/A,,Partly Cloudy,310,2013-04-03 02:51:00
9:51 PM,70.0,5.0,8,29.71,10.0,NW,20.7,24.2,N/A,,Partly Cloudy,310,2013-04-03 03:51:00
10:51 PM,68.0,6.1,9,29.72,10.0,NW,11.5,-,N/A,,Clear,310,2013-04-03 04:51:00
11:51 PM,66.9,6.1,9,29.73,10.0,NW,13.8,20.7,N/A,,Clear,310,2013-04-03 05:51:00